Time;durP1;ratioP1;P1;durP2;ratioP2;P2;SDS_P1;SDS_P2;PMS_P1;PMS_P2;Temp;Humidity;BMP_temperature;BMP_pressure;BME280_temperature;BME280_humidity;BME280_pressure;Samples;Min_cycle;Max_cycle;Signal;HPM_P1;HPM_P2
2022/07/01 00:01:47;;;;;;;;;;;;;;;18.98;78.00;95195.47;5136995;27;1830;-48
2022/07/01 00:04:33;;;;;;;;;;;;;;;18.82;78.01;95190.47;5135678;27;2274;-48
2022/07/01 00:07:19;;;;;;;;;;;;;;;18.55;78.98;95193.19;5136788;27;1995;-48
2022/07/01 00:10:05;;;;;;;;;;;;;;;18.47;79.38;95199.66;5137774;27;2024;-49
2022/07/01 00:12:50;;;;;;;;;;;;;;;18.44;79.14;95194.69;5157183;27;2102;-48
2022/07/01 00:15:36;;;;;;;;;;;;;;;18.56;79.17;95196.75;5157954;27;2202;-48
2022/07/01 00:18:23;;;;;;;;;;;;;;;18.95;77.17;95197.75;5157540;27;2248;-48
2022/07/01 00:21:09;;;;;;;;;;;;;;;19.02;77.20;95209.41;5156976;27;2211;-48
2022/07/01 00:23:55;;;;;;;;;;;;;;;19.01;77.04;95215.88;5141976;27;2194;-48
2022/07/01 00:26:40;;;;;;;;;;;;;;;19.08;76.60;95216.69;5157269;27;2198;-48
2022/07/01 00:29:26;;;;;;;;;;;;;;;18.95;76.74;95214.84;5142002;27;2126;-48
2022/07/01 00:31:52;;;;;;;;;;;;;;;18.75;78.06;95205.91;5157423;27;964;-48
2022/07/01 00:34:18;;;;;;;;;;;;;;;18.63;78.79;95209.25;5156784;27;1036;-48
2022/07/01 00:36:44;;;;;;;;;;;;;;;18.68;78.57;95211.31;5138356;27;2035;-48
2022/07/01 00:39:10;;;;;;;;;;;;;;;18.62;78.48;95207.56;5157134;27;975;-48
2022/07/01 00:41:37;;;;;;;;;;;;;;;18.41;79.14;95214.03;5156925;27;1038;-48
2022/07/01 00:44:03;;;;;;;;;;;;;;;18.17;80.06;95210.06;5136942;27;1909;-48
2022/07/01 00:46:30;;;;;;;;;;;;;;;18.10;80.43;95220.06;5136036;27;960;-48
2022/07/01 00:48:57;;;;;;;;;;;;;;;18.28;79.89;95219.44;5135976;27;1039;-48
2022/07/01 00:51:24;;;;;;;;;;;;;;;18.37;80.01;95220.91;5135575;27;1080;-48
2022/07/01 00:53:50;;;;;;;;;;;;;;;18.71;77.79;95221.75;5136316;27;1184;-49
2022/07/01 00:56:18;;;;;;;;;;;;;;;18.87;76.71;95224.00;5135629;27;1048;-48
2022/07/01 00:58:44;;;;;;;;;;;;;;;18.98;76.31;95221.72;5135805;27;1064;-48
2022/07/01 01:01:11;;;;;;;;;;;;;;;18.86;77.12;95221.53;5117355;27;1096;-48
2022/07/01 01:03:37;;;;;;;;;;;;;;;18.81;77.83;95224.88;5135674;27;1003;-48
2022/07/01 01:06:04;;;;;;;;;;;;;;;18.59;78.66;95226.09;5135257;27;1987;-48
2022/07/01 01:08:30;;;;;;;;;;;;;;;18.30;79.24;95223.59;5117617;27;1025;-49
2022/07/01 01:10:56;;;;;;;;;;;;;;;18.28;79.80;95227.56;5135491;27;1265;-49
2022/07/01 01:13:23;;;;;;;;;;;;;;;18.20;79.92;95233.19;5117065;27;1040;-48
2022/07/01 01:15:49;;;;;;;;;;;;;;;18.10;80.34;95230.91;5117602;27;1200;-48
2022/07/01 01:18:15;;;;;;;;;;;;;;;17.98;81.32;95229.81;5135149;27;1048;-48
2022/07/01 01:20:41;;;;;;;;;;;;;;;17.81;82.30;95242.84;5135298;27;965;-48
2022/07/01 01:23:08;;;;;;;;;;;;;;;17.89;82.15;95246.25;5135027;27;1079;-48
2022/07/01 01:25:34;;;;;;;;;;;;;;;18.12;81.54;95248.56;5135116;27;1906;-48
2022/07/01 01:28:00;;;;;;;;;;;;;;;18.44;79.65;95247.97;5116697;27;1044;-48
2022/07/01 01:30:27;;;;;;;;;;;;;;;18.58;79.94;95260.47;5116956;27;1867;-48
2022/07/01 01:32:53;;;;;;;;;;;;;;;18.49;79.69;95256.31;5134888;27;1107;-49
2022/07/01 01:35:20;;;;;;;;;;;;;;;18.45;80.47;95265.91;5135142;27;1500;-48
2022/07/01 01:37:46;;;;;;;;;;;;;;;18.52;80.08;95262.16;5135034;27;999;-48
2022/07/01 01:40:15;;;;;;;;;;;;;;;18.62;79.99;95258.19;5135089;27;1103;-48
2022/07/01 01:42:42;;;;;;;;;;;;;;;18.63;79.42;95262.56;5134802;27;1208;-48
2022/07/01 01:45:09;;;;;;;;;;;;;;;18.68;79.41;95255.47;5134845;27;1909;-48
2022/07/01 01:47:35;;;;;;;;;;;;;;;18.56;79.58;95257.16;5116455;27;1040;-48
2022/07/01 01:50:01;;;;;;;;;;;;;;;18.50;79.53;95252.56;5134638;27;1184;-48
2022/07/01 01:52:27;;;;;;;;;;;;;;;18.34;80.87;95259.22;5134562;27;2663;-48
2022/07/01 01:54:54;;;;;;;;;;;;;;;18.26;80.71;95259.41;5116531;27;1024;-48
2022/07/01 01:57:20;;;;;;;;;;;;;;;18.29;81.02;95261.72;5134417;27;1095;-48
2022/07/01 01:59:46;;;;;;;;;;;;;;;18.47;80.49;95264.63;5135240;27;1219;-48
2022/07/01 02:02:12;;;;;;;;;;;;;;;18.63;79.36;95258.00;5134470;27;1023;-48
2022/07/01 02:04:38;;;;;;;;;;;;;;;18.76;78.30;95259.84;5115940;27;2000;-48
2022/07/01 02:07:04;;;;;;;;;;;;;;;18.69;79.43;95261.75;5134127;27;1080;-48
2022/07/01 02:09:31;;;;;;;;;;;;;;;18.55;79.91;95258.19;5134606;27;982;-49
2022/07/01 02:11:57;;;;;;;;;;;;;;;18.20;81.63;95266.50;5134452;27;1235;-48
2022/07/01 02:14:23;;;;;;;;;;;;;;;18.12;81.32;95278.34;5115977;27;1557;-48
2022/07/01 02:16:50;;;;;;;;;;;;;;;18.14;81.98;95278.13;5116866;28;1156;-48
2022/07/01 02:19:16;;;;;;;;;;;;;;;18.12;82.02;95275.63;5115916;28;1044;-48
2022/07/01 02:21:43;;;;;;;;;;;;;;;18.23;81.54;95282.31;5134418;27;1299;-49
2022/07/01 02:24:09;;;;;;;;;;;;;;;18.19;81.71;95282.91;5115945;28;1991;-48
2022/07/01 02:26:36;;;;;;;;;;;;;;;18.16;82.28;95281.47;5134455;28;1020;-49
2022/07/01 02:29:03;;;;;;;;;;;;;;;18.26;81.28;95283.78;5134152;28;1089;-49
2022/07/01 02:31:29;;;;;;;;;;;;;;;18.27;81.41;95286.28;5134366;28;1070;-49
2022/07/01 02:33:56;;;;;;;;;;;;;;;18.31;81.34;95286.72;5115979;28;1000;-48
2022/07/01 02:36:22;;;;;;;;;;;;;;;18.23;81.72;95289.59;5116130;27;1142;-48
2022/07/01 02:38:49;;;;;;;;;;;;;;;18.01;81.66;95294.34;5134122;27;1247;-48
2022/07/01 02:41:15;;;;;;;;;;;;;;;17.89;82.43;95299.47;5134102;28;1103;-48
2022/07/01 02:43:41;;;;;;;;;;;;;;;17.84;83.00;95299.25;5133906;28;1224;-49
2022/07/01 02:46:07;;;;;;;;;;;;;;;17.97;82.29;95304.72;5134487;28;1987;-48
2022/07/01 02:48:34;;;;;;;;;;;;;;;18.21;80.85;95307.91;5133953;28;980;-49
2022/07/01 02:51:00;;;;;;;;;;;;;;;18.18;81.52;95306.44;5116044;28;1101;-48
2022/07/01 02:53:26;;;;;;;;;;;;;;;18.21;81.64;95314.16;5115707;28;1032;-49
2022/07/01 02:55:53;;;;;;;;;;;;;;;18.27;81.36;95312.53;5099245;28;1555;-49
2022/07/01 02:58:20;;;;;;;;;;;;;;;18.20;81.78;95317.06;5133917;28;1123;-49
2022/07/01 03:00:48;;;;;;;;;;;;;;;18.12;81.67;95320.81;5134425;27;1161;-48
2022/07/01 03:03:14;;;;;;;;;;;;;;;18.17;81.20;95314.78;5133957;28;1013;-48
2022/07/01 03:05:40;;;;;;;;;;;;;;;18.28;80.82;95309.59;5115741;28;1909;-48
2022/07/01 03:08:07;;;;;;;;;;;;;;;18.17;81.40;95306.66;5133757;28;2521;-49
2022/07/01 03:10:33;;;;;;;;;;;;;;;18.18;81.56;95302.91;5133558;28;1231;-49
2022/07/01 03:13:01;;;;;;;;;;;;;;;18.20;81.78;95306.25;5115697;28;1028;-48
2022/07/01 03:15:28;;;;;;;;;;;;;;;18.25;82.11;95309.16;5133697;28;989;-48
2022/07/01 03:17:54;;;;;;;;;;;;;;;18.24;81.67;95312.91;5134298;27;1037;-48
2022/07/01 03:20:20;;;;;;;;;;;;;;;17.98;81.92;95313.69;5119306;27;1044;-48
2022/07/01 03:22:47;;;;;;;;;;;;;;;17.98;82.76;95314.50;5137721;27;1075;-48
2022/07/01 03:25:13;;;;;;;;;;;;;;;18.28;81.13;95308.75;5137230;27;1909;-50
2022/07/01 03:27:45;;;;;;;;;;;;;;;18.41;80.75;95316.06;5137547;27;961;-50
2022/07/01 03:30:11;;;;;;;;;;;;;;;18.15;82.31;95317.66;5137123;27;1205;-50
2022/07/01 03:32:37;;;;;;;;;;;;;;;18.16;81.95;95313.13;5137699;27;1059;-49
2022/07/01 03:35:35;;;;;;;;;;;;;;;18.02;82.85;95313.09;5137544;27;1227;-49
2022/07/01 03:37:50;;;;;;;;;;;;;;;18.00;83.14;95309.72;5137342;27;1530;-48
2022/07/01 03:40:16;;;;;;;;;;;;;;;18.20;82.66;95300.84;5137119;27;1059;-49
2022/07/01 03:42:43;;;;;;;;;;;;;;;18.43;81.42;95312.13;5118852;27;2433;-49
2022/07/01 03:45:10;;;;;;;;;;;;;;;18.63;81.38;95312.16;5118642;27;1909;-48
2022/07/01 03:47:36;;;;;;;;;;;;;;;18.56;81.75;95315.91;5119005;27;1099;-48
2022/07/01 03:50:03;;;;;;;;;;;;;;;18.44;82.30;95321.91;5101903;27;1417;-48
2022/07/01 03:52:29;;;;;;;;;;;;;;;18.44;82.62;95321.91;5137468;27;1538;-49
2022/07/01 03:54:56;;;;;;;;;;;;;;;18.50;82.19;95329.22;5116738;27;3759;-49
2022/07/01 03:57:22;;;;;;;;;;;;;;;18.61;82.43;95327.78;5136109;27;3296;-48
2022/07/01 03:59:49;;;;;;;;;;;;;;;18.75;81.49;95335.91;5118497;27;1114;-49
2022/07/01 04:02:15;;;;;;;;;;;;;;;18.99;80.17;95323.63;5136427;27;3362;-49
2022/07/01 04:04:42;;;;;;;;;;;;;;;19.33;78.81;95329.84;5136291;27;1998;-48
2022/07/01 04:07:11;;;;;;;;;;;;;;;19.44;79.50;95331.91;5101707;27;1563;-48
2022/07/01 04:09:37;;;;;;;;;;;;;;;19.29;80.44;95343.84;5136442;27;1048;-49
2022/07/01 04:12:04;;;;;;;;;;;;;;;19.38;80.93;95336.28;5136351;27;1928;-49
2022/07/01 04:14:30;;;;;;;;;;;;;;;19.55;80.70;95335.84;5118158;27;1024;-48
2022/07/01 04:16:57;;;;;;;;;;;;;;;19.75;79.54;95339.38;5118571;27;953;-48
2022/07/01 04:19:24;;;;;;;;;;;;;;;20.07;77.83;95336.72;5118255;27;1044;-49
2022/07/01 04:24:35;;;;;;;;;;;;;;;20.61;77.36;95331.88;5136088;27;1917;-49
2022/07/01 04:27:01;;;;;;;;;;;;;;;20.48;77.79;95339.00;5136191;27;1119;-48
2022/07/01 04:29:29;;;;;;;;;;;;;;;20.38;77.68;95330.53;5135834;27;976;-48
2022/07/01 04:31:56;;;;;;;;;;;;;;;20.29;77.07;95338.06;5136100;27;1115;-49
2022/07/01 04:34:22;;;;;;;;;;;;;;;20.39;77.02;95340.31;5135857;27;1044;-49
2022/07/01 04:36:48;;;;;;;;;;;;;;;20.64;76.39;95328.69;5136004;27;1045;-49
2022/07/01 04:39:14;;;;;;;;;;;;;;;20.90;77.07;95335.00;5117741;27;1028;-48
2022/07/01 04:44:37;;;;;;;;;;;;;;;21.12;74.98;95347.16;5122438;27;1913;-49
2022/07/01 04:47:03;;;;;;;;;;;;;;;21.15;73.59;95338.56;5135825;27;1072;-49
2022/07/01 04:49:30;;;;;;;;;;;;;;;21.24;74.62;95344.53;5135646;27;3209;-49
2022/07/01 04:51:56;;;;;;;;;;;;;;;21.37;74.55;95349.84;5135866;27;1007;-54
2022/07/01 04:54:23;;;;;;;;;;;;;;;21.56;73.13;95358.91;5135841;27;1210;-49
2022/07/01 04:56:49;;;;;;;;;;;;;;;21.67;73.58;95348.34;5135739;27;996;-48
2022/07/01 04:59:16;;;;;;;;;;;;;;;21.66;75.36;95350.22;5135691;27;1098;-48
2022/07/01 05:01:42;;;;;;;;;;;;;;;21.66;74.98;95357.56;5135416;27;1860;-52
2022/07/01 05:04:09;;;;;;;;;;;;;;;21.71;73.49;95363.16;5135103;27;2035;-48
2022/07/01 05:06:35;;;;;;;;;;;;;;;21.78;74.11;95362.03;5135284;27;1032;-48
2022/07/01 05:09:01;;;;;;;;;;;;;;;21.83;74.53;95364.94;5135611;27;1027;-49
2022/07/01 05:11:27;;;;;;;;;;;;;;;21.93;72.98;95356.22;5135043;27;1087;-49
2022/07/01 05:13:54;;;;;;;;;;;;;;;22.01;71.03;95361.34;5117170;27;1056;-49
2022/07/01 05:16:20;;;;;;;;;;;;;;;22.00;71.50;95359.69;5135030;27;1091;-49
2022/07/01 05:24:19;;;;;;;;;;;;;;;22.35;70.51;95350.91;5135123;27;1916;-48
2022/07/01 05:26:45;;;;;;;;;;;;;;;22.61;71.68;95359.75;5135041;27;981;-51
2022/07/01 05:29:11;;;;;;;;;;;;;;;22.65;70.83;95355.53;5134955;27;1108;-49
2022/07/01 05:31:37;;;;;;;;;;;;;;;22.68;69.78;95363.22;5134838;27;1031;-49
2022/07/01 05:34:04;;;;;;;;;;;;;;;22.72;69.98;95364.44;5134743;27;1965;-49
2022/07/01 05:36:30;;;;;;;;;;;;;;;22.84;70.01;95364.47;5134823;27;987;-49
2022/07/01 05:38:56;;;;;;;;;;;;;;;22.80;68.83;95363.25;5135057;27;1048;-49
2022/07/01 05:41:22;;;;;;;;;;;;;;;22.87;68.60;95360.44;5115813;28;1100;-50
2022/07/01 05:43:49;;;;;;;;;;;;;;;22.97;67.81;95363.44;5152235;27;1153;-48
2022/07/01 05:46:15;;;;;;;;;;;;;;;22.93;67.16;95364.97;5155078;27;1986;-48
2022/07/01 05:48:41;;;;;;;;;;;;;;;23.06;65.88;95366.69;5154597;27;3333;-48
2022/07/01 05:51:07;;;;;;;;;;;;;;;23.06;67.03;95366.69;5116284;27;996;-48
2022/07/01 05:53:33;;;;;;;;;;;;;;;23.12;64.14;95371.19;5134817;27;1049;-48
2022/07/01 05:55:59;;;;;;;;;;;;;;;23.16;66.05;95365.06;5134461;27;1032;-48
2022/07/01 05:58:25;;;;;;;;;;;;;;;23.36;66.19;95361.16;5134573;27;1083;-48
2022/07/01 06:00:51;;;;;;;;;;;;;;;23.44;64.76;95365.44;5134406;27;991;-48
2022/07/01 06:03:17;;;;;;;;;;;;;;;23.59;65.68;95371.25;5134766;27;985;-49
2022/07/01 06:05:44;;;;;;;;;;;;;;;23.62;65.28;95369.94;5134177;27;2020;-49
2022/07/01 06:08:10;;;;;;;;;;;;;;;23.93;65.11;95357.84;5134214;27;984;-49
2022/07/01 06:10:36;;;;;;;;;;;;;;;24.11;64.20;95365.88;5115809;27;1269;-50
2022/07/01 06:13:03;;;;;;;;;;;;;;;24.15;63.73;95358.88;5133538;27;1071;-49
2022/07/01 06:15:29;;;;;;;;;;;;;;;24.36;64.05;95364.75;5114764;27;1037;-49
2022/07/01 06:17:56;;;;;;;;;;;;;;;24.44;65.91;95356.16;5133932;27;2224;-50
2022/07/01 06:20:22;;;;;;;;;;;;;;;24.51;63.02;95364.19;5134131;27;1083;-49
2022/07/01 06:22:49;;;;;;;;;;;;;;;24.68;65.07;95359.66;5134103;27;1036;-49
2022/07/01 06:25:15;;;;;;;;;;;;;;;24.68;63.92;95362.41;5134179;28;1902;-49
2022/07/01 06:27:42;;;;;;;;;;;;;;;24.75;64.91;95363.06;5134072;28;1024;-50
2022/07/01 06:30:08;;;;;;;;;;;;;;;24.91;64.21;95363.38;5134006;28;991;-50
2022/07/01 06:32:35;;;;;;;;;;;;;;;24.93;62.74;95361.22;5134182;28;1537;-49
2022/07/01 06:35:01;;;;;;;;;;;;;;;24.96;65.07;95360.69;5115814;28;1107;-49
2022/07/01 06:37:27;;;;;;;;;;;;;;;25.00;64.14;95356.38;5132349;28;991;-48
2022/07/01 06:39:53;;;;;;;;;;;;;;;25.01;63.02;95366.28;5114677;28;1977;-49
2022/07/01 06:42:21;;;;;;;;;;;;;;;25.20;62.87;95364.13;5115531;28;1221;-49
2022/07/01 06:44:47;;;;;;;;;;;;;;;25.38;62.08;95354.03;5133924;28;1986;-49
2022/07/01 06:47:14;;;;;;;;;;;;;;;25.52;60.64;95358.94;5133879;28;1039;-49
2022/07/01 06:49:40;;;;;;;;;;;;;;;25.40;61.29;95357.34;5133896;27;3323;-49
2022/07/01 06:52:06;;;;;;;;;;;;;;;25.44;61.74;95355.78;5114872;28;1458;-49
2022/07/01 06:54:32;;;;;;;;;;;;;;;25.51;60.72;95354.53;5137080;27;972;-49
2022/07/01 06:56:59;;;;;;;;;;;;;;;25.62;60.52;95360.16;5138053;27;1050;-49
2022/07/01 06:59:25;;;;;;;;;;;;;;;25.81;58.52;95361.53;5119912;27;1561;-49
2022/07/01 07:01:51;;;;;;;;;;;;;;;25.81;58.70;95353.31;5137807;27;1044;-49
2022/07/01 07:04:17;;;;;;;;;;;;;;;25.85;57.40;95354.47;5137576;27;1984;-49
2022/07/01 07:06:43;;;;;;;;;;;;;;;25.69;56.25;95355.34;5137952;27;965;-49
2022/07/01 07:09:10;;;;;;;;;;;;;;;25.98;58.97;95356.06;5102967;27;1504;-49
2022/07/01 07:11:36;;;;;;;;;;;;;;;26.05;60.53;95355.88;5136411;27;1944;-48
2022/07/01 07:14:03;;;;;;;;;;;;;;;26.05;58.83;95361.38;5137695;27;1060;-49
2022/07/01 07:16:29;;;;;;;;;;;;;;;26.19;58.42;95362.63;5119825;27;998;-50
2022/07/01 07:18:55;;;;;;;;;;;;;;;26.38;57.21;95356.84;5137677;27;1036;-50
2022/07/01 07:21:21;;;;;;;;;;;;;;;26.44;55.60;95350.34;5137604;27;1032;-50
2022/07/01 07:23:48;;;;;;;;;;;;;;;26.62;55.39;95354.69;5119364;27;1526;-50
2022/07/01 07:26:14;;;;;;;;;;;;;;;26.82;56.35;95354.88;5137502;27;1909;-52
2022/07/01 07:28:41;;;;;;;;;;;;;;;27.00;56.65;95348.22;5119147;27;1662;-50
2022/07/01 07:31:08;;;;;;;;;;;;;;;27.05;56.69;95350.16;5118968;27;1706;-50
2022/07/01 07:33:34;;;;;;;;;;;;;;;26.92;56.50;95348.69;5137183;27;1095;-50
2022/07/01 07:36:01;;;;;;;;;;;;;;;26.80;55.75;95353.50;5119247;27;1802;-50
2022/07/01 07:38:27;;;;;;;;;;;;;;;26.75;56.04;95346.06;5137215;27;1029;-49
2022/07/01 07:40:53;;;;;;;;;;;;;;;26.96;56.16;95349.84;5137321;27;1086;-50
2022/07/01 07:43:20;;;;;;;;;;;;;;;27.06;56.18;95344.44;5132338;27;1161;-50
2022/07/01 07:45:47;;;;;;;;;;;;;;;27.17;55.26;95341.78;5139795;27;1991;-49
2022/07/01 07:48:13;;;;;;;;;;;;;;;27.23;53.27;95341.56;5157735;27;1340;-49
2022/07/01 07:50:40;;;;;;;;;;;;;;;27.33;54.13;95340.03;5122106;27;3034;-50
2022/07/01 07:53:08;;;;;;;;;;;;;;;27.36;55.57;95343.06;5118943;27;1650;-50
2022/07/01 07:55:35;;;;;;;;;;;;;;;27.55;56.21;95338.00;5137097;27;980;-50
2022/07/01 07:58:04;;;;;;;;;;;;;;;27.67;54.57;95337.81;5118645;27;1040;-50
2022/07/01 08:00:31;;;;;;;;;;;;;;;27.79;54.19;95337.59;5136953;27;1130;-50
2022/07/01 08:02:58;;;;;;;;;;;;;;;27.95;51.92;95338.56;5118624;27;1048;-50
2022/07/01 08:05:25;;;;;;;;;;;;;;;27.96;52.10;95330.03;5116634;27;1912;-50
2022/07/01 08:07:51;;;;;;;;;;;;;;;27.97;51.33;95334.44;5119063;27;1556;-50
2022/07/01 08:10:18;;;;;;;;;;;;;;;28.01;52.46;95324.56;5136411;27;1409;-50
2022/07/01 08:12:45;;;;;;;;;;;;;;;28.20;52.62;95318.63;5118417;27;1032;-49
2022/07/01 08:15:11;;;;;;;;;;;;;;;28.30;52.20;95320.56;5136743;27;1052;-50
2022/07/01 08:17:38;;;;;;;;;;;;;;;28.27;52.57;95321.94;5137045;27;1519;-50
2022/07/01 08:20:05;;;;;;;;;;;;;;;28.39;50.99;95322.53;5118326;27;1697;-49
2022/07/01 08:22:33;;;;;;;;;;;;;;;28.35;49.44;95323.34;5118242;27;1099;-49
2022/07/01 08:24:59;;;;;;;;;;;;;;;28.31;51.63;95316.75;5117973;27;1908;-49
2022/07/01 08:27:27;;;;;;;;;;;;;;;28.29;49.16;95314.25;5101558;27;1404;-49
2022/07/01 08:29:53;;;;;;;;;;;;;;;28.42;50.92;95316.50;5136355;27;957;-50
2022/07/01 08:32:21;;;;;;;;;;;;;;;28.51;49.95;95315.97;5136130;27;1099;-50
2022/07/01 08:34:48;;;;;;;;;;;;;;;28.55;48.82;95309.69;5135901;27;1060;-49
2022/07/01 08:37:14;;;;;;;;;;;;;;;28.67;49.38;95314.13;5136254;27;1491;-49
2022/07/01 08:39:41;;;;;;;;;;;;;;;28.74;50.74;95310.03;5135860;27;1056;-49
2022/07/01 08:42:07;;;;;;;;;;;;;;;28.87;50.32;95311.41;5135899;27;1145;-49
2022/07/01 08:44:34;;;;;;;;;;;;;;;29.11;50.94;95319.16;5117932;27;1909;-49
2022/07/01 08:47:00;;;;;;;;;;;;;;;29.15;49.63;95312.84;5117660;27;1846;-50
2022/07/01 08:49:26;;;;;;;;;;;;;;;29.17;48.33;95309.81;5135905;27;3053;-49
2022/07/01 08:51:53;;;;;;;;;;;;;;;29.28;48.97;95314.22;5135898;27;1043;-50
2022/07/01 08:54:19;;;;;;;;;;;;;;;29.44;49.66;95319.72;5117394;27;1514;-50
2022/07/01 08:56:45;;;;;;;;;;;;;;;29.53;48.09;95318.06;5117899;27;1218;-50
2022/07/01 08:59:12;;;;;;;;;;;;;;;29.55;48.27;95313.91;5135551;27;1581;-50
2022/07/01 09:01:39;;;;;;;;;;;;;;;29.65;48.15;95313.06;5135753;27;1028;-50
2022/07/01 09:04:16;;;;;;;;;;;;;;;29.77;46.89;95310.91;5135117;27;1917;-49
2022/07/01 09:06:42;;;;;;;;;;;;;;;29.83;48.33;95310.91;5146964;27;1326;-50
2022/07/01 09:09:16;;;;;;;;;;;;;;;29.75;49.14;95310.34;5156200;27;999;-50
2022/07/01 09:11:53;;;;;;;;;;;;;;;29.69;49.66;95311.44;5156130;27;1217;-51
2022/07/01 09:14:24;;;;;;;;;;;;;;;29.85;49.25;95303.16;5155770;27;1028;-50
2022/07/01 09:16:51;;;;;;;;;;;;;;;29.91;47.72;95304.78;5156036;27;1498;-49
2022/07/01 09:19:19;;;;;;;;;;;;;;;29.97;47.66;95299.00;5155804;27;2601;-49
2022/07/01 09:21:49;;;;;;;;;;;;;;;29.97;48.38;95296.25;5137812;27;1027;-49
2022/07/01 09:24:29;;;;;;;;;;;;;;;30.06;49.67;95298.41;5155851;27;1914;-49
2022/07/01 09:26:56;;;;;;;;;;;;;;;30.14;49.19;95290.38;5156023;27;1024;-50
2022/07/01 09:29:27;;;;;;;;;;;;;;;30.12;46.39;95298.09;5137347;27;1103;-50
2022/07/01 09:31:53;;;;;;;;;;;;;;;30.15;47.04;95292.03;5155898;27;1092;-50
2022/07/01 09:34:20;;;;;;;;;;;;;;;30.24;47.11;95294.19;5137269;27;1791;-49
2022/07/01 09:36:53;;;;;;;;;;;;;;;30.31;46.93;95286.44;5156033;27;960;-49
2022/07/01 09:39:19;;;;;;;;;;;;;;;30.29;45.28;95289.47;5155479;27;1031;-50
2022/07/01 09:41:46;;;;;;;;;;;;;;;30.24;45.76;95274.91;5155792;27;977;-49
2022/07/01 09:44:12;;;;;;;;;;;;;;;30.35;45.28;95282.91;5116545;27;1907;-50
2022/07/01 09:46:50;;;;;;;;;;;;;;;30.35;45.06;95282.03;5116563;27;1982;-50
2022/07/01 09:49:17;;;;;;;;;;;;;;;30.26;43.71;95275.44;5134498;27;1040;-52
2022/07/01 09:51:43;;;;;;;;;;;;;;;30.27;44.00;95266.06;5134595;27;1955;-50
2022/07/01 09:54:11;;;;;;;;;;;;;;;30.32;43.75;95272.41;5116612;27;1064;-50
2022/07/01 09:56:37;;;;;;;;;;;;;;;30.37;43.64;95263.28;5134750;27;995;-50
2022/07/01 09:59:04;;;;;;;;;;;;;;;30.37;41.94;95263.28;5116512;27;1007;-50
2022/07/01 10:01:31;;;;;;;;;;;;;;;30.45;43.32;95254.44;5116173;27;1044;-49
2022/07/01 10:04:00;;;;;;;;;;;;;;;30.59;45.76;95254.63;5143193;27;2754;-49
2022/07/01 10:06:45;;;;;;;;;;;;;;;30.49;42.57;95250.00;5136924;27;1980;-49
2022/07/01 10:09:34;;;;;;;;;;;;;;;30.40;40.92;95254.44;5155383;27;1043;-49
2022/07/01 10:12:12;;;;;;;;;;;;;;;30.48;42.46;95237.28;5141504;27;1292;-49
2022/07/01 10:14:40;;;;;;;;;;;;;;;30.60;42.38;95234.19;5155381;27;1071;-49
2022/07/01 10:17:06;;;;;;;;;;;;;;;30.64;42.29;95231.66;5154995;27;1028;-49
2022/07/01 10:19:33;;;;;;;;;;;;;;;30.59;38.54;95231.72;5155342;27;965;-50
2022/07/01 10:22:00;;;;;;;;;;;;;;;30.53;38.85;95225.41;5154382;27;1023;-49
2022/07/01 10:24:27;;;;;;;;;;;;;;;30.61;39.01;95222.03;5155330;27;1901;-49
2022/07/01 10:27:00;;;;;;;;;;;;;;;30.62;39.67;95223.72;5155188;27;1012;-49
2022/07/01 10:29:31;;;;;;;;;;;;;;;30.62;37.34;95225.63;5154077;27;1024;-49
2022/07/01 10:32:20;;;;;;;;;;;;;;;30.70;39.66;95223.09;5154697;27;2021;-49
2022/07/01 10:34:46;;;;;;;;;;;;;;;30.82;39.18;95221.91;5141419;27;1183;-49
2022/07/01 10:37:12;;;;;;;;;;;;;;;30.84;38.62;95217.72;5154337;27;1119;-48
2022/07/01 10:39:53;;;;;;;;;;;;;;;30.99;37.17;95218.75;5155205;27;976;-49
2022/07/01 10:42:20;;;;;;;;;;;;;;;30.99;37.27;95211.28;5150007;27;1145;-49
2022/07/01 10:45:04;;;;;;;;;;;;;;;30.98;33.60;95209.66;5134321;28;1902;-49
2022/07/01 10:47:30;;;;;;;;;;;;;;;30.98;30.55;95204.16;5134083;28;1181;-49
2022/07/01 10:49:58;;;;;;;;;;;;;;;31.00;32.60;95203.81;5134393;28;1004;-49
2022/07/01 10:52:24;;;;;;;;;;;;;;;31.07;33.36;95202.38;5134162;28;956;-49
2022/07/01 10:54:53;;;;;;;;;;;;;;;31.09;31.30;95196.56;5134378;28;1109;-49
2022/07/01 10:57:19;;;;;;;;;;;;;;;31.10;30.87;95201.00;5133727;28;1044;-49
2022/07/01 10:59:48;;;;;;;;;;;;;;;31.15;29.53;95192.63;5137379;27;2858;-49
2022/07/01 11:02:16;;;;;;;;;;;;;;;31.18;30.29;95192.06;5146227;27;3230;-49
2022/07/01 11:04:42;;;;;;;;;;;;;;;31.21;33.48;95196.19;5154467;27;1991;-49
2022/07/01 11:07:09;;;;;;;;;;;;;;;31.19;32.54;95190.97;5134826;27;3083;-49
2022/07/01 11:09:35;;;;;;;;;;;;;;;31.18;33.03;95183.78;5115752;28;1012;-49
2022/07/01 11:12:02;;;;;;;;;;;;;;;31.20;33.37;95191.78;5115091;28;1356;-49
2022/07/01 11:14:29;;;;;;;;;;;;;;;31.21;35.08;95183.22;5134041;28;1095;-49
2022/07/01 11:16:57;;;;;;;;;;;;;;;31.25;35.99;95181.50;5133728;28;1087;-49
2022/07/01 11:19:24;;;;;;;;;;;;;;;31.32;37.20;95183.91;5154053;27;3028;-49
2022/07/01 11:21:50;;;;;;;;;;;;;;;31.43;32.43;95176.34;5154398;27;1040;-50
2022/07/01 11:24:20;;;;;;;;;;;;;;;31.40;31.23;95168.63;5154330;27;1906;-49
2022/07/01 11:26:47;;;;;;;;;;;;;;;31.40;31.86;95174.16;5154453;27;971;-52
2022/07/01 11:29:13;;;;;;;;;;;;;;;31.38;28.69;95162.59;5154230;27;1023;-49
2022/07/01 11:31:40;;;;;;;;;;;;;;;31.42;27.76;95163.69;5154178;27;1020;-49
2022/07/01 11:34:06;;;;;;;;;;;;;;;31.47;28.06;95158.09;5134865;27;1027;-49
2022/07/01 11:39:25;;;;;;;;;;;;;;;31.56;28.17;95155.53;5153297;27;1125;-49
2022/07/01 11:41:54;;;;;;;;;;;;;;;31.56;27.91;95156.34;5137303;27;1160;-49
2022/07/01 11:44:29;;;;;;;;;;;;;;;31.60;31.33;95151.06;5137237;27;1973;-49
2022/07/01 11:46:55;;;;;;;;;;;;;;;31.65;29.81;95148.25;5137181;27;1503;-49
2022/07/01 11:49:23;;;;;;;;;;;;;;;31.76;28.93;95146.16;5118997;27;1504;-49
2022/07/01 11:52:00;;;;;;;;;;;;;;;31.85;27.89;95145.22;5136981;27;1017;-49
2022/07/01 11:54:28;;;;;;;;;;;;;;;31.90;29.36;95145.13;5137429;27;1641;-49
2022/07/01 11:56:54;;;;;;;;;;;;;;;31.90;29.76;95141.56;5137075;27;1423;-49
2022/07/01 11:59:21;;;;;;;;;;;;;;;31.97;29.19;95144.78;5137252;27;1507;-51
2022/07/01 12:01:52;;;;;;;;;;;;;;;31.94;29.87;95150.91;5119190;27;1799;-49
2022/07/01 12:04:19;;;;;;;;;;;;;;;31.91;30.20;95140.44;5118482;27;1994;-50
2022/07/01 12:06:46;;;;;;;;;;;;;;;31.84;31.76;95146.34;5136924;27;1028;-50
2022/07/01 12:09:14;;;;;;;;;;;;;;;31.81;30.09;95143.34;5118822;27;1063;-50
2022/07/01 12:11:43;;;;;;;;;;;;;;;31.67;30.65;95133.00;5118510;27;1100;-49
2022/07/01 12:14:10;;;;;;;;;;;;;;;31.77;32.39;95134.00;5118707;27;982;-50
2022/07/01 12:16:41;;;;;;;;;;;;;;;31.87;30.08;95133.84;5118952;27;982;-50
2022/07/01 12:19:09;;;;;;;;;;;;;;;31.99;31.07;95128.72;5118603;27;1079;-50
2022/07/01 12:21:52;;;;;;;;;;;;;;;32.06;32.90;95131.97;5101401;27;1472;-50
2022/07/01 12:24:21;;;;;;;;;;;;;;;32.00;33.36;95122.06;5118591;27;1995;-50
2022/07/01 12:26:49;;;;;;;;;;;;;;;32.00;32.33;95121.25;5136883;27;1037;-50
2022/07/01 12:29:17;;;;;;;;;;;;;;;32.00;33.30;95116.53;5136365;27;1064;-50
2022/07/01 12:31:44;;;;;;;;;;;;;;;31.92;31.57;95114.44;5118527;27;1012;-50
2022/07/01 12:34:10;;;;;;;;;;;;;;;31.90;32.15;95106.44;5136162;27;1027;-50
2022/07/01 12:36:46;;;;;;;;;;;;;;;31.84;31.13;95099.34;5118630;27;1094;-50
2022/07/01 12:39:12;;;;;;;;;;;;;;;31.80;32.91;95103.81;5136485;27;1229;-50
2022/07/01 12:41:39;;;;;;;;;;;;;;;31.73;30.96;95108.88;5136443;27;1060;-49
2022/07/01 12:44:22;;;;;;;;;;;;;;;31.71;31.17;95097.31;5155843;27;1331;-50
2022/07/01 12:46:48;;;;;;;;;;;;;;;31.71;30.16;95092.59;5156925;27;1132;-50
2022/07/01 12:49:18;;;;;;;;;;;;;;;31.71;31.49;95089.84;5156922;27;1103;-49
2022/07/01 12:51:45;;;;;;;;;;;;;;;31.80;29.29;95089.19;5121162;27;1439;-50
2022/07/01 12:54:28;;;;;;;;;;;;;;;31.92;30.08;95089.56;5156431;27;1115;-50
2022/07/01 12:56:54;;;;;;;;;;;;;;;31.98;29.42;95093.06;5121339;27;980;-50
2022/07/01 12:59:20;;;;;;;;;;;;;;;31.96;29.86;95087.84;5138151;27;1100;-49
2022/07/01 13:01:46;;;;;;;;;;;;;;;32.01;29.89;95090.53;5157166;27;1048;-49
2022/07/01 13:04:13;;;;;;;;;;;;;;;32.03;29.01;95098.56;5138414;27;1522;-49
2022/07/01 13:06:39;;;;;;;;;;;;;;;32.03;30.36;95093.03;5156755;27;1084;-49
2022/07/01 13:09:06;;;;;;;;;;;;;;;31.96;28.76;95092.56;5137952;27;1035;-50
2022/07/01 13:11:32;;;;;;;;;;;;;;;32.00;27.74;95088.06;5137864;27;1272;-49
2022/07/01 13:13:58;;;;;;;;;;;;;;;31.94;27.96;95092.03;5156497;27;1036;-49
2022/07/01 13:16:25;;;;;;;;;;;;;;;31.94;29.46;95092.84;5138597;27;1575;-52